Time;durP1;ratioP1;P1;durP2;ratioP2;P2;SDS_P1;SDS_P2;PMS_P1;PMS_P2;Temp;Humidity;BMP_temperature;BMP_pressure;BME280_temperature;BME280_humidity;BME280_pressure;Samples;Min_cycle;Max_cycle;Signal;HPM_P1;HPM_P2
2022/05/29 00:00:11;;;;;;;2.43;1.70;;;;;;;;;;4995935;28;20277;-55
2022/05/29 00:02:37;;;;;;;4.17;1.87;;;;;;;;;;4996475;28;20536;-56
2022/05/29 00:05:04;;;;;;;2.23;1.50;;;;;;;;;;4994947;28;20237;-56
2022/05/29 00:07:30;;;;;;;5.03;1.90;;;;;;;;;;4995758;28;25870;-56
2022/05/29 00:09:56;;;;;;;2.67;1.40;;;;;;;;;;4995096;28;20818;-56
2022/05/29 00:12:22;;;;;;;4.00;2.13;;;;;;;;;;4995526;28;20663;-56
2022/05/29 00:14:48;;;;;;;4.47;1.80;;;;;;;;;;4987291;28;20718;-56
2022/05/29 00:17:14;;;;;;;4.43;1.73;;;;;;;;;;4989362;28;20260;-56
2022/05/29 00:19:40;;;;;;;4.17;1.70;;;;;;;;;;4992865;28;20175;-56
2022/05/29 00:22:07;;;;;;;3.20;1.53;;;;;;;;;;4996821;28;20194;-56
2022/05/29 00:24:33;;;;;;;4.90;1.90;;;;;;;;;;4994861;28;20214;-56
2022/05/29 00:26:59;;;;;;;2.20;1.67;;;;;;;;;;4997953;28;20210;-56
2022/05/29 00:29:25;;;;;;;3.33;1.90;;;;;;;;;;4994559;28;20213;-56
2022/05/29 00:31:51;;;;;;;3.73;1.70;;;;;;;;;;4993890;28;20240;-56
2022/05/29 00:34:17;;;;;;;3.33;1.93;;;;;;;;;;4995439;28;20205;-57
2022/05/29 00:36:44;;;;;;;5.27;1.60;;;;;;;;;;4997779;28;20186;-57
2022/05/29 00:39:10;;;;;;;3.37;1.90;;;;;;;;;;4995696;28;20647;-57
2022/05/29 00:41:36;;;;;;;4.23;1.80;;;;;;;;;;4990692;28;20224;-56
2022/05/29 00:44:19;;;;;;;4.23;1.60;;;;;;;;;;4991062;28;20193;-56
2022/05/29 00:46:55;;;;;;;3.50;1.60;;;;;;;;;;4993856;28;20189;-56
2022/05/29 00:49:22;;;;;;;2.47;1.80;;;;;;;;;;4996236;28;20806;-56
2022/05/29 00:52:07;;;;;;;3.70;1.70;;;;;;;;;;4993070;28;20658;-57
2022/05/29 00:54:42;;;;;;;4.00;1.53;;;;;;;;;;4999162;28;20188;-57
2022/05/29 00:57:10;;;;;;;4.80;1.80;;;;;;;;;;4994678;28;20546;-56
2022/05/29 00:59:36;;;;;;;2.73;1.67;;;;;;;;;;4995080;28;20189;-57
2022/05/29 01:02:02;;;;;;;5.27;2.07;;;;;;;;;;4995907;28;20201;-56
2022/05/29 01:04:28;;;;;;;4.93;2.07;;;;;;;;;;4996671;28;20237;-57
2022/05/29 01:06:54;;;;;;;5.17;1.77;;;;;;;;;;4998267;28;20193;-56
2022/05/29 01:09:20;;;;;;;4.77;1.77;;;;;;;;;;4993213;28;20692;-56
2022/05/29 01:12:05;;;;;;;3.63;2.10;;;;;;;;;;4992291;28;20177;-56
2022/05/29 01:14:40;;;;;;;6.50;1.90;;;;;;;;;;4982422;28;20544;-56
2022/05/29 01:17:07;;;;;;;3.97;1.90;;;;;;;;;;4988461;28;20189;-56
2022/05/29 01:19:40;;;;;;;5.23;1.97;;;;;;;;;;4988770;28;20193;-56
2022/05/29 01:22:25;;;;;;;5.67;1.90;;;;;;;;;;4994103;28;20206;-56
2022/05/29 01:24:54;;;;;;;4.13;2.10;;;;;;;;;;4993716;28;20251;-57
2022/05/29 01:27:20;;;;;;;6.10;2.30;;;;;;;;;;4994420;28;20216;-56
2022/05/29 01:30:01;;;;;;;2.20;1.90;;;;;;;;;;4992332;28;20546;-56
2022/05/29 01:32:31;;;;;;;6.07;2.50;;;;;;;;;;4995239;28;20264;-56
2022/05/29 01:34:58;;;;;;;5.07;2.77;;;;;;;;;;4992050;28;20819;-56
2022/05/29 01:37:24;;;;;;;7.90;2.30;;;;;;;;;;4990441;28;20572;-57
2022/05/29 01:39:50;;;;;;;5.10;2.10;;;;;;;;;;4995544;28;20190;-56
2022/05/29 01:42:21;;;;;;;7.20;2.10;;;;;;;;;;4991963;28;20607;-57
2022/05/29 01:44:52;;;;;;;4.50;1.97;;;;;;;;;;4993254;28;20194;-56
2022/05/29 01:47:20;;;;;;;3.40;1.80;;;;;;;;;;4992336;28;20195;-56
2022/05/29 01:49:50;;;;;;;5.07;1.83;;;;;;;;;;4998425;28;20736;-57
2022/05/29 01:52:17;;;;;;;3.77;2.00;;;;;;;;;;4988030;28;20811;-56
2022/05/29 01:54:45;;;;;;;4.13;2.20;;;;;;;;;;4998777;28;20196;-56
2022/05/29 01:57:22;;;;;;;3.80;1.70;;;;;;;;;;4992272;28;20187;-57
2022/05/29 01:59:56;;;;;;;3.33;2.00;;;;;;;;;;4991904;28;20194;-56
2022/05/29 02:02:34;;;;;;;2.73;1.87;;;;;;;;;;4986225;28;20542;-56
2022/05/29 02:05:01;;;;;;;5.33;2.00;;;;;;;;;;4994315;28;20695;-56
2022/05/29 02:10:14;;;;;;;2.70;1.50;;;;;;;;;;4991752;28;20194;-56
2022/05/29 02:12:41;;;;;;;3.90;1.70;;;;;;;;;;4990886;28;20597;-56
2022/05/29 02:15:08;;;;;;;6.07;2.00;;;;;;;;;;4985501;28;20239;-57
2022/05/29 02:17:43;;;;;;;2.67;1.97;;;;;;;;;;4991624;28;20221;-56
2022/05/29 02:20:18;;;;;;;2.30;1.83;;;;;;;;;;4987333;28;20199;-56
2022/05/29 02:22:44;;;;;;;2.53;1.70;;;;;;;;;;4988794;28;20221;-56
2022/05/29 02:25:13;;;;;;;3.90;1.60;;;;;;;;;;4991003;28;20289;-56
2022/05/29 02:27:50;;;;;;;4.40;2.00;;;;;;;;;;4989881;28;20232;-56
2022/05/29 02:30:16;;;;;;;5.23;1.80;;;;;;;;;;4987762;28;20609;-56
2022/05/29 02:33:01;;;;;;;4.40;2.07;;;;;;;;;;4990040;28;20249;-56
2022/05/29 02:35:30;;;;;;;2.43;1.60;;;;;;;;;;4993166;28;20272;-56
2022/05/29 02:37:56;;;;;;;3.40;1.63;;;;;;;;;;4992247;28;20637;-57
2022/05/29 02:40:25;;;;;;;4.90;1.90;;;;;;;;;;4990016;28;20193;-56
2022/05/29 02:42:51;;;;;;;3.93;1.80;;;;;;;;;;4990031;28;20707;-57
2022/05/29 02:45:20;;;;;;;5.63;2.20;;;;;;;;;;4990616;28;20872;-56
2022/05/29 02:47:50;;;;;;;3.17;1.80;;;;;;;;;;4991442;28;20305;-56
2022/05/29 02:50:30;;;;;;;2.00;1.70;;;;;;;;;;4988713;28;20214;-55
2022/05/29 02:52:57;;;;;;;6.07;1.90;;;;;;;;;;4989872;28;20201;-56
2022/05/29 02:55:23;;;;;;;3.43;1.90;;;;;;;;;;4997049;28;20193;-56
2022/05/29 02:57:50;;;;;;;3.77;1.60;;;;;;;;;;4994124;28;20187;-56
2022/05/29 03:00:16;;;;;;;4.03;2.20;;;;;;;;;;4988270;28;20213;-56
2022/05/29 03:02:48;;;;;;;5.20;2.23;;;;;;;;;;4989148;28;20194;-56
2022/05/29 03:05:17;;;;;;;4.20;1.70;;;;;;;;;;4995573;28;20651;-56
2022/05/29 03:07:49;;;;;;;3.73;1.87;;;;;;;;;;4993155;28;20229;-56
2022/05/29 03:10:14;;;;;;;4.87;2.20;;;;;;;;;;4996229;28;20182;-56
2022/05/29 03:12:59;;;;;;;3.60;2.23;;;;;;;;;;4990057;28;20190;-56
2022/05/29 03:15:36;;;;;;;5.57;1.80;;;;;;;;;;4996308;28;20217;-56
2022/05/29 03:18:41;;;;;;;4.77;1.90;;;;;;;;;;4996056;28;20572;-56
2022/05/29 03:21:09;;;;;;;4.00;2.00;;;;;;;;;;4937619;28;20204;-56
2022/05/29 03:23:44;;;;;;;3.87;1.90;;;;;;;;;;4936625;28;20773;-56
2022/05/29 03:26:12;;;;;;;4.33;2.17;;;;;;;;;;4958974;28;20730;-56
2022/05/29 03:28:40;;;;;;;4.33;2.00;;;;;;;;;;4997993;28;20221;-56
2022/05/29 03:31:07;;;;;;;4.03;1.70;;;;;;;;;;4996885;28;20183;-56
2022/05/29 03:33:33;;;;;;;2.70;1.97;;;;;;;;;;4993595;28;20190;-56
2022/05/29 03:35:58;;;;;;;3.90;2.13;;;;;;;;;;4998078;28;20190;-56
2022/05/29 03:38:24;;;;;;;5.67;2.30;;;;;;;;;;4994678;28;20324;-56
2022/05/29 03:40:50;;;;;;;5.73;2.07;;;;;;;;;;4997996;28;20291;-57
2022/05/29 03:43:17;;;;;;;4.60;1.70;;;;;;;;;;4991441;28;20194;-56
2022/05/29 03:45:42;;;;;;;4.70;1.93;;;;;;;;;;4993848;28;20551;-55
2022/05/29 03:48:09;;;;;;;7.10;2.40;;;;;;;;;;4996065;28;20201;-56
2022/05/29 03:50:34;;;;;;;4.00;1.70;;;;;;;;;;4993882;28;20182;-56
2022/05/29 03:53:01;;;;;;;4.93;1.93;;;;;;;;;;4996410;28;20195;-56
2022/05/29 03:55:27;;;;;;;3.13;2.03;;;;;;;;;;5001425;28;20542;-56
2022/05/29 03:57:53;;;;;;;3.73;2.23;;;;;;;;;;4992761;28;20222;-56
2022/05/29 04:00:20;;;;;;;4.90;1.97;;;;;;;;;;4992516;28;20281;-57
2022/05/29 04:02:46;;;;;;;5.73;2.00;;;;;;;;;;4992405;28;20197;-56
2022/05/29 04:05:13;;;;;;;5.60;2.00;;;;;;;;;;4990846;28;21168;-57
2022/05/29 04:13:08;;;;;;;3.83;2.00;;;;;;;;;;4994333;28;20193;-56
2022/05/29 04:15:35;;;;;;;3.50;2.00;;;;;;;;;;4987846;28;20190;-56
2022/05/29 04:18:01;;;;;;;4.37;1.90;;;;;;;;;;4976759;28;20190;-56
2022/05/29 04:20:27;;;;;;;5.37;2.73;;;;;;;;;;4997296;28;20277;-57
2022/05/29 04:22:53;;;;;;;5.47;2.70;;;;;;;;;;4991398;28;20201;-56
2022/05/29 04:25:19;;;;;;;3.57;1.97;;;;;;;;;;4994592;28;20198;-56
2022/05/29 04:27:45;;;;;;;4.70;1.97;;;;;;;;;;4991960;28;20276;-56
2022/05/29 04:30:12;;;;;;;5.80;2.23;;;;;;;;;;4988202;28;20193;-56
2022/05/29 04:35:22;;;;;;;5.00;2.07;;;;;;;;;;4994894;28;20241;-56
2022/05/29 04:37:49;;;;;;;4.77;2.13;;;;;;;;;;4996123;28;20175;-56
2022/05/29 04:40:15;;;;;;;5.17;2.40;;;;;;;;;;4987939;28;20209;-56
2022/05/29 04:42:41;;;;;;;4.73;2.43;;;;;;;;;;4966838;28;20308;-56
2022/05/29 04:45:07;;;;;;;10.40;2.77;;;;;;;;;;4962855;28;20194;-56
2022/05/29 04:47:33;;;;;;;7.27;2.37;;;;;;;;;;4964556;28;20214;-56
2022/05/29 04:49:59;;;;;;;2.83;2.10;;;;;;;;;;4986452;28;20191;-56
2022/05/29 04:52:25;;;;;;;4.10;2.67;;;;;;;;;;4989204;28;20196;-56
2022/05/29 04:54:51;;;;;;;6.50;2.50;;;;;;;;;;4994349;28;20185;-57
2022/05/29 04:57:18;;;;;;;5.83;2.80;;;;;;;;;;4990243;28;20186;-56
2022/05/29 04:59:45;;;;;;;5.90;2.60;;;;;;;;;;4992270;28;20190;-56
2022/05/29 05:02:10;;;;;;;7.03;2.80;;;;;;;;;;4990897;28;20186;-56
2022/05/29 05:04:36;;;;;;;5.73;2.50;;;;;;;;;;4990141;28;20315;-57
2022/05/29 05:07:02;;;;;;;5.83;2.80;;;;;;;;;;4992640;28;20186;-56
2022/05/29 05:09:29;;;;;;;7.73;2.83;;;;;;;;;;4994856;28;20222;-56
2022/05/29 05:11:55;;;;;;;6.13;2.83;;;;;;;;;;4995087;28;20591;-57
2022/05/29 05:14:21;;;;;;;4.83;2.70;;;;;;;;;;4994872;28;20186;-57
2022/05/29 05:16:47;;;;;;;3.97;2.50;;;;;;;;;;4991526;28;20559;-57
2022/05/29 05:19:13;;;;;;;5.63;2.63;;;;;;;;;;4993322;28;20795;-56
2022/05/29 05:21:39;;;;;;;5.43;2.20;;;;;;;;;;4996959;28;20194;-56
2022/05/29 05:24:06;;;;;;;6.67;2.63;;;;;;;;;;4992770;28;20268;-57
2022/05/29 05:26:32;;;;;;;6.73;2.77;;;;;;;;;;4980665;28;20229;-56
2022/05/29 05:28:58;;;;;;;5.40;2.40;;;;;;;;;;4983555;28;20288;-57
2022/05/29 05:31:25;;;;;;;4.50;2.37;;;;;;;;;;4991311;28;20192;-56
2022/05/29 05:33:51;;;;;;;5.87;2.57;;;;;;;;;;4993970;28;20194;-56
2022/05/29 05:36:17;;;;;;;7.90;2.50;;;;;;;;;;4992752;28;20190;-57
2022/05/29 05:38:42;;;;;;;4.70;2.43;;;;;;;;;;4989829;28;20268;-57
2022/05/29 05:41:09;;;;;;;6.00;2.67;;;;;;;;;;4988247;28;20198;-57
2022/05/29 05:43:35;;;;;;;8.00;2.50;;;;;;;;;;4990540;28;20194;-57
2022/05/29 05:46:01;;;;;;;4.37;2.40;;;;;;;;;;4985790;28;20196;-57
2022/05/29 05:48:30;;;;;;;7.70;2.33;;;;;;;;;;4986279;28;20332;-57
2022/05/29 05:50:57;;;;;;;5.83;3.00;;;;;;;;;;4988035;28;20182;-56
2022/05/29 05:53:23;;;;;;;4.50;2.40;;;;;;;;;;4992804;28;20217;-57
2022/05/29 05:55:49;;;;;;;4.50;2.27;;;;;;;;;;4989790;28;20333;-57
2022/05/29 05:58:15;;;;;;;6.50;2.40;;;;;;;;;;4986506;28;20197;-57
2022/05/29 06:00:41;;;;;;;4.40;2.40;;;;;;;;;;4992642;28;20297;-57
2022/05/29 06:03:06;;;;;;;4.30;2.57;;;;;;;;;;4995077;28;20229;-55
2022/05/29 06:05:35;;;;;;;7.37;2.47;;;;;;;;;;4986844;28;20712;-59
2022/05/29 06:08:01;;;;;;;5.30;2.23;;;;;;;;;;4985070;28;20221;-58
2022/05/29 06:10:27;;;;;;;8.03;2.43;;;;;;;;;;4981726;28;20664;-56
2022/05/29 06:12:53;;;;;;;6.80;2.50;;;;;;;;;;4988129;28;20643;-58
2022/05/29 06:15:19;;;;;;;4.73;2.40;;;;;;;;;;4989881;28;20760;-57
2022/05/29 06:17:45;;;;;;;3.70;2.40;;;;;;;;;;4990888;28;20190;-56
2022/05/29 06:20:12;;;;;;;5.73;2.60;;;;;;;;;;4991524;28;20240;-58
2022/05/29 06:22:38;;;;;;;5.57;2.37;;;;;;;;;;4988193;28;20646;-58
2022/05/29 06:25:04;;;;;;;6.27;2.23;;;;;;;;;;4988767;28;20558;-58
2022/05/29 06:27:30;;;;;;;6.73;2.40;;;;;;;;;;4984946;28;20221;-58
2022/05/29 06:29:57;;;;;;;6.57;2.33;;;;;;;;;;4989102;28;20221;-56
2022/05/29 06:32:23;;;;;;;2.80;2.03;;;;;;;;;;4978659;28;20553;-57
2022/05/29 06:34:49;;;;;;;5.83;2.20;;;;;;;;;;4989862;28;20194;-57
2022/05/29 06:37:15;;;;;;;8.27;2.83;;;;;;;;;;4989092;28;20193;-58
2022/05/29 06:39:41;;;;;;;4.50;2.30;;;;;;;;;;4988973;28;20659;-56
2022/05/29 06:42:07;;;;;;;5.03;2.30;;;;;;;;;;4992011;28;20289;-57
2022/05/29 06:44:33;;;;;;;8.40;2.57;;;;;;;;;;4976027;28;20698;-56
2022/05/29 06:47:03;;;;;;;3.37;1.83;;;;;;;;;;4993408;28;21083;-57
2022/05/29 06:49:30;;;;;;;7.27;2.13;;;;;;;;;;4986871;28;20260;-57
2022/05/29 06:51:56;;;;;;;5.43;2.00;;;;;;;;;;4980696;28;20193;-57
2022/05/29 06:54:21;;;;;;;4.17;2.10;;;;;;;;;;4982477;28;20201;-57
2022/05/29 06:56:47;;;;;;;4.47;1.90;;;;;;;;;;4991186;28;20268;-57
2022/05/29 06:59:13;;;;;;;4.23;2.10;;;;;;;;;;4988537;28;20857;-59
2022/05/29 07:07:12;;;;;;;4.37;2.00;;;;;;;;;;4988770;28;20189;-58
2022/05/29 07:09:39;;;;;;;5.30;2.13;;;;;;;;;;4986454;28;20297;-58
2022/05/29 07:12:11;;;;;;;3.27;1.90;;;;;;;;;;4985110;28;20657;-58
2022/05/29 07:15:00;;;;;;;4.90;2.07;;;;;;;;;;4988368;28;20193;-58
2022/05/29 07:17:27;;;;;;;4.83;2.13;;;;;;;;;;4967206;28;20197;-59
2022/05/29 07:19:53;;;;;;;4.40;2.10;;;;;;;;;;4987521;28;20556;-58
2022/05/29 07:22:19;;;;;;;4.33;2.33;;;;;;;;;;4991362;28;20189;-58
2022/05/29 07:24:45;;;;;;;3.83;2.13;;;;;;;;;;4986603;28;20183;-58
2022/05/29 07:27:11;;;;;;;4.17;2.10;;;;;;;;;;4983902;28;20213;-58
2022/05/29 07:29:37;;;;;;;6.67;2.37;;;;;;;;;;4986711;28;20242;-57
2022/05/29 07:32:03;;;;;;;5.47;2.70;;;;;;;;;;4977702;28;21869;-57
2022/05/29 07:34:30;;;;;;;4.70;2.10;;;;;;;;;;4983929;28;20277;-58
2022/05/29 07:37:06;;;;;;;3.93;2.03;;;;;;;;;;4988187;28;20245;-58
2022/05/29 07:39:34;;;;;;;6.07;1.80;;;;;;;;;;4981160;28;20629;-57
2022/05/29 07:44:45;;;;;;;3.90;1.80;;;;;;;;;;4987014;28;20345;-58
2022/05/29 07:47:11;;;;;;;4.20;2.10;;;;;;;;;;4983886;28;21400;-57
2022/05/29 07:49:40;;;;;;;4.60;1.80;;;;;;;;;;4991276;28;20758;-57
2022/05/29 07:52:07;;;;;;;2.70;2.20;;;;;;;;;;4987740;28;20195;-57
2022/05/29 07:54:33;;;;;;;5.50;1.80;;;;;;;;;;4992086;28;20186;-57
2022/05/29 07:56:59;;;;;;;2.97;2.10;;;;;;;;;;4987672;28;20685;-57
2022/05/29 07:59:24;;;;;;;3.87;2.03;;;;;;;;;;4993903;28;20679;-57
2022/05/29 08:01:50;;;;;;;4.17;2.23;;;;;;;;;;4992230;28;20563;-58
2022/05/29 08:04:16;;;;;;;2.50;2.00;;;;;;;;;;4972080;28;20296;-58
2022/05/29 08:06:42;;;;;;;5.97;2.63;;;;;;;;;;4987433;28;20229;-58
2022/05/29 08:09:08;;;;;;;3.47;2.13;;;;;;;;;;4978847;28;20226;-58
2022/05/29 08:11:34;;;;;;;4.70;2.00;;;;;;;;;;4991420;28;20182;-58
2022/05/29 08:14:01;;;;;;;5.27;2.00;;;;;;;;;;4990613;28;20197;-58
2022/05/29 08:16:27;;;;;;;6.97;2.60;;;;;;;;;;4988366;28;20183;-57
2022/05/29 08:18:53;;;;;;;6.03;2.10;;;;;;;;;;4988851;28;20633;-58
2022/05/29 08:21:20;;;;;;;3.23;1.70;;;;;;;;;;4988103;28;20190;-58
2022/05/29 08:31:59;;;;;;;4.53;1.80;;;;;;;;;;4987057;28;20217;-59
2022/05/29 08:34:25;;;;;;;3.67;2.03;;;;;;;;;;4984601;28;20743;-59
2022/05/29 08:36:51;;;;;;;5.67;1.97;;;;;;;;;;4982031;28;20202;-59
2022/05/29 08:39:17;;;;;;;3.80;1.70;;;;;;;;;;4987749;28;20664;-59
2022/05/29 08:41:46;;;;;;;3.73;1.97;;;;;;;;;;4987178;28;20201;-60
2022/05/29 08:44:13;;;;;;;4.27;1.97;;;;;;;;;;4984029;28;20244;-57
2022/05/29 08:46:40;;;;;;;6.57;2.80;;;;;;;;;;4983031;28;20189;-57
2022/05/29 08:49:06;;;;;;;6.47;3.10;;;;;;;;;;4981662;28;20201;-57
2022/05/29 08:51:38;;;;;;;7.23;3.13;;;;;;;;;;4986695;28;21158;-57
2022/05/29 08:54:11;;;;;;;5.67;2.50;;;;;;;;;;4984691;28;20199;-56
2022/05/29 08:56:46;;;;;;;3.77;2.00;;;;;;;;;;4984988;28;20182;-57
2022/05/29 08:59:20;;;;;;;5.37;2.27;;;;;;;;;;4984290;28;20614;-56
2022/05/29 09:02:07;;;;;;;4.03;2.30;;;;;;;;;;4983686;28;20197;-57
2022/05/29 09:04:34;;;;;;;5.37;2.23;;;;;;;;;;4973195;28;20237;-56
2022/05/29 09:07:00;;;;;;;5.90;2.20;;;;;;;;;;4990092;28;20659;-57
2022/05/29 09:09:26;;;;;;;4.33;1.90;;;;;;;;;;4987960;28;20221;-58
2022/05/29 09:11:56;;;;;;;4.90;2.47;;;;;;;;;;4967084;28;20293;-58
2022/05/29 09:14:26;;;;;;;2.43;1.77;;;;;;;;;;4968114;28;20186;-57
2022/05/29 09:16:54;;;;;;;5.20;2.13;;;;;;;;;;4968427;28;20198;-59
2022/05/29 09:19:24;;;;;;;4.70;2.20;;;;;;;;;;4980483;28;20537;-59
2022/05/29 09:21:55;;;;;;;10.30;3.20;;;;;;;;;;4990562;28;21432;-59
2022/05/29 09:24:37;;;;;;;4.30;1.80;;;;;;;;;;4981093;28;20201;-55
2022/05/29 09:27:03;;;;;;;3.83;1.80;;;;;;;;;;4982272;28;20222;-62
2022/05/29 09:29:30;;;;;;;7.57;1.77;;;;;;;;;;4991145;28;20218;-62
2022/05/29 09:31:56;;;;;;;4.87;2.07;;;;;;;;;;4991655;28;20222;-61
2022/05/29 09:34:22;;;;;;;4.87;1.80;;;;;;;;;;4994851;28;20684;-63
2022/05/29 09:36:55;;;;;;;5.60;1.87;;;;;;;;;;4990664;28;20268;-62
2022/05/29 09:39:24;;;;;;;4.57;1.90;;;;;;;;;;4991161;28;20198;-63
2022/05/29 09:41:56;;;;;;;3.97;1.87;;;;;;;;;;4990672;28;20248;-63
2022/05/29 09:44:22;;;;;;;2.70;1.60;;;;;;;;;;4993899;28;20614;-63
2022/05/29 09:46:49;;;;;;;3.33;2.00;;;;;;;;;;4987190;28;20684;-61
2022/05/29 09:49:40;;;;;;;5.20;2.08;;;;;;;;;;4976364;28;21397;-60
2022/05/29 09:52:12;;;;;;;4.50;1.73;;;;;;;;;;4970387;28;20186;-60
2022/05/29 09:54:45;;;;;;;3.07;2.00;;;;;;;;;;4976810;28;20197;-60
2022/05/29 09:57:31;;;;;;;4.90;1.90;;;;;;;;;;4972797;28;20287;-59
2022/05/29 10:00:06;;;;;;;4.53;1.80;;;;;;;;;;4975049;28;20569;-61
2022/05/29 10:02:39;;;;;;;3.70;1.50;;;;;;;;;;4970796;28;20200;-59
2022/05/29 10:05:06;;;;;;;4.73;1.60;;;;;;;;;;4987315;28;20234;-59
2022/05/29 10:07:42;;;;;;;3.20;1.70;;;;;;;;;;4981660;28;20221;-59
2022/05/29 10:10:13;;;;;;;2.50;1.40;;;;;;;;;;4980654;28;21323;-60
2022/05/29 10:12:43;;;;;;;3.93;1.53;;;;;;;;;;4973919;28;20213;-60
2022/05/29 10:15:13;;;;;;;3.03;1.57;;;;;;;;;;4965127;28;20689;-61
2022/05/29 10:17:40;;;;;;;3.63;1.67;;;;;;;;;;4980533;28;20951;-60
2022/05/29 10:20:24;;;;;;;4.10;1.73;;;;;;;;;;4963066;28;20183;-60
2022/05/29 10:22:52;;;;;;;3.63;1.83;;;;;;;;;;4963848;28;20188;-60
2022/05/29 10:25:23;;;;;;;3.67;1.70;;;;;;;;;;4973540;28;20182;-60
2022/05/29 10:27:50;;;;;;;3.33;1.60;;;;;;;;;;4972161;28;20221;-60
2022/05/29 10:30:34;;;;;;;2.47;1.70;;;;;;;;;;4972884;28;20232;-60
2022/05/29 10:33:03;;;;;;;4.57;1.83;;;;;;;;;;4979759;28;20186;-60
2022/05/29 10:35:29;;;;;;;3.87;1.80;;;;;;;;;;4988361;28;20732;-60
2022/05/29 10:37:55;;;;;;;3.10;1.60;;;;;;;;;;4977541;28;20194;-62
2022/05/29 10:40:28;;;;;;;3.77;2.00;;;;;;;;;;4972821;28;20248;-61
2022/05/29 10:43:00;;;;;;;3.97;2.00;;;;;;;;;;4984847;28;20195;-60
2022/05/29 10:45:32;;;;;;;2.67;1.43;;;;;;;;;;4966967;28;20681;-60
2022/05/29 10:48:01;;;;;;;4.30;1.63;;;;;;;;;;4960713;28;20232;-61
2022/05/29 10:50:29;;;;;;;2.47;1.67;;;;;;;;;;4976411;28;20186;-61
2022/05/29 10:53:01;;;;;;;3.43;1.83;;;;;;;;;;4972735;28;20190;-60
2022/05/29 10:55:40;;;;;;;3.23;1.50;;;;;;;;;;4981615;28;20913;-61
2022/05/29 10:58:25;;;;;;;2.03;1.40;;;;;;;;;;4978864;28;20186;-61
2022/05/29 11:00:55;;;;;;;2.28;1.30;;;;;;;;;;4971796;28;20198;-61
2022/05/29 11:03:47;;;;;;;1.90;1.58;;;;;;;;;;4980004;28;20233;-60
2022/05/29 11:06:16;;;;;;;1.63;1.50;;;;;;;;;;4981995;28;20357;-61
2022/05/29 11:09:01;;;;;;;2.08;1.65;;;;;;;;;;4981967;28;20316;-61
2022/05/29 11:11:33;;;;;;;3.05;1.40;;;;;;;;;;4971693;28;20190;-60
2022/05/29 11:14:22;;;;;;;1.92;1.50;;;;;;;;;;4969548;28;22089;-61
2022/05/29 11:16:51;;;;;;;2.67;1.50;;;;;;;;;;4949109;28;20214;-61
2022/05/29 11:19:29;;;;;;;1.70;1.30;;;;;;;;;;4976571;28;20468;-61
2022/05/29 11:22:01;;;;;;;1.95;1.60;;;;;;;;;;4988666;28;20658;-61
2022/05/29 11:24:30;;;;;;;3.78;1.80;;;;;;;;;;4970319;28;20186;-61
2022/05/29 11:27:02;;;;;;;2.00;1.80;;;;;;;;;;4975414;28;20177;-61
2022/05/29 11:29:33;;;;;;;2.50;1.60;;;;;;;;;;4983003;28;20344;-61
2022/05/29 11:32:08;;;;;;;3.30;1.70;;;;;;;;;;4979569;28;20194;-60
2022/05/29 11:34:38;;;;;;;2.70;1.70;;;;;;;;;;4981745;28;20190;-61
2022/05/29 11:37:17;;;;;;;1.85;1.70;;;;;;;;;;4977496;28;20205;-61
2022/05/29 11:39:44;;;;;;;2.67;2.00;;;;;;;;;;4982009;28;20185;-61
2022/05/29 11:42:16;;;;;;;1.92;1.63;;;;;;;;;;4985403;28;20280;-60
2022/05/29 11:44:44;;;;;;;3.00;1.80;;;;;;;;;;4989051;28;20557;-61
2022/05/29 11:53:01;;;;;;;3.13;1.67;;;;;;;;;;4983893;28;20194;-61
2022/05/29 11:55:31;;;;;;;3.40;1.67;;;;;;;;;;4991250;28;20196;-57
2022/05/29 11:57:58;;;;;;;2.85;1.50;;;;;;;;;;4989403;28;20196;-57
2022/05/29 12:00:44;;;;;;;5.40;1.80;;;;;;;;;;4984010;28;20201;-57
2022/05/29 12:03:14;;;;;;;4.32;1.40;;;;;;;;;;4987575;28;20778;-57
2022/05/29 12:05:44;;;;;;;3.90;1.50;;;;;;;;;;4985471;28;20193;-57
2022/05/29 12:08:16;;;;;;;2.90;1.30;;;;;;;;;;4986165;28;20586;-57
2022/05/29 12:10:51;;;;;;;1.88;1.70;;;;;;;;;;4985512;28;20191;-57
2022/05/29 12:13:17;;;;;;;2.50;1.50;;;;;;;;;;4975174;28;20287;-57
2022/05/29 12:15:43;;;;;;;2.08;1.45;;;;;;;;;;4974972;28;20189;-57
2022/05/29 12:18:14;;;;;;;6.03;1.60;;;;;;;;;;4978958;28;20194;-57
2022/05/29 12:20:41;;;;;;;2.35;1.63;;;;;;;;;;4975230;28;20240;-59
2022/05/29 12:23:26;;;;;;;1.85;1.23;;;;;;;;;;4984541;28;20197;-65
2022/05/29 12:26:00;;;;;;;2.00;1.40;;;;;;;;;;4984136;28;20189;-62
2022/05/29 12:28:45;;;;;;;3.40;1.45;;;;;;;;;;4984730;28;20221;-64
2022/05/29 12:31:23;;;;;;;3.42;1.63;;;;;;;;;;4981891;28;20659;-61
2022/05/29 12:33:49;;;;;;;24.77;3.65;;;;;;;;;;4975182;28;20182;-60
2022/05/29 12:36:34;;;;;;;3.58;1.83;;;;;;;;;;4957219;28;20233;-63
2022/05/29 12:39:13;;;;;;;3.05;1.60;;;;;;;;;;4975290;28;20198;-60
2022/05/29 12:41:45;;;;;;;2.50;1.50;;;;;;;;;;4981444;28;20697;-60
2022/05/29 12:44:46;;;;;;;1.65;1.40;;;;;;;;;;4973623;28;20185;-60
2022/05/29 12:47:31;;;;;;;1.30;1.20;;;;;;;;;;4915063;28;20198;-62
2022/05/29 12:50:06;;;;;;;1.50;1.40;;;;;;;;;;4969030;28;20233;-62
2022/05/29 12:52:40;;;;;;;1.50;1.20;;;;;;;;;;4975069;28;20193;-61
2022/05/29 12:55:36;;;;;;;1.45;1.35;;;;;;;;;;4981949;28;20269;-62
2022/05/29 12:58:14;;;;;;;1.20;1.10;;;;;;;;;;4971902;28;20578;-62
2022/05/29 13:00:49;;;;;;;1.20;1.10;;;;;;;;;;4980148;28;20643;-62
2022/05/29 13:03:24;;;;;;;1.52;1.42;;;;;;;;;;4976090;28;20225;-62
2022/05/29 13:06:05;;;;;;;2.85;1.13;;;;;;;;;;4987377;28;20854;-61
2022/05/29 13:08:31;;;;;;;1.50;1.10;;;;;;;;;;4992003;28;20637;-61
2022/05/29 13:10:57;;;;;;;0.95;0.95;;;;;;;;;;4990366;28;20254;-62
2022/05/29 13:13:44;;;;;;;1.95;1.20;;;;;;;;;;4988872;28;20200;-62
2022/05/29 13:16:26;;;;;;;1.90;1.20;;;;;;;;;;4987715;28;20180;-62
2022/05/29 13:19:14;;;;;;;1.15;1.05;;;;;;;;;;4986206;28;20204;-62
2022/05/29 13:21:55;;;;;;;1.63;1.10;;;;;;;;;;4990788;28;20179;-62
2022/05/29 13:24:26;;;;;;;2.00;1.13;;;;;;;;;;4983375;28;20209;-62
2022/05/29 13:27:11;;;;;;;1.17;1.00;;;;;;;;;;4990845;28;20224;-62
2022/05/29 13:29:40;;;;;;;1.20;1.10;;;;;;;;;;4992432;28;20205;-62
2022/05/29 13:32:15;;;;;;;1.10;1.05;;;;;;;;;;4981811;28;20273;-60
2022/05/29 13:34:48;;;;;;;2.00;1.23;;;;;;;;;;4977773;28;20189;-63
2022/05/29 13:37:17;;;;;;;1.20;1.10;;;;;;;;;;4986029;28;20213;-61
2022/05/29 13:40:04;;;;;;;4.80;1.30;;;;;;;;;;4982686;28;20528;-60
2022/05/29 13:42:34;;;;;;;1.92;1.33;;;;;;;;;;4983142;28;20193;-63
2022/05/29 13:45:00;;;;;;;5.28;1.65;;;;;;;;;;4985871;28;20193;-61
2022/05/29 13:47:26;;;;;;;2.25;1.00;;;;;;;;;;4986872;28;20690;-63
2022/05/29 13:49:56;;;;;;;1.98;1.00;;;;;;;;;;4978336;28;20715;-63
2022/05/29 13:52:23;;;;;;;1.10;1.10;;;;;;;;;;4985468;28;20228;-61
2022/05/29 13:55:08;;;;;;;2.42;1.00;;;;;;;;;;4976792;28;20190;-60
2022/05/29 14:04:10;;;;;;;1.20;0.90;;;;;;;;;;4977804;28;20376;-62
2022/05/29 14:06:25;;;;;;;2.45;2.25;;;;;;;;;;4978294;28;20225;-62
2022/05/29 14:08:56;;;;;;;2.35;1.77;;;;;;;;;;4982417;28;20236;-63
2022/05/29 14:11:22;;;;;;;3.35;1.80;;;;;;;;;;4969154;28;20206;-62
2022/05/29 14:13:49;;;;;;;1.80;1.70;;;;;;;;;;4980341;28;20269;-63
2022/05/29 14:16:31;;;;;;;2.30;1.58;;;;;;;;;;4978565;28;20629;-63
2022/05/29 14:18:59;;;;;;;2.28;1.48;;;;;;;;;;4979275;28;21172;-60
2022/05/29 14:21:40;;;;;;;1.30;1.20;;;;;;;;;;4976882;28;20718;-62
2022/05/29 14:24:16;;;;;;;2.75;1.40;;;;;;;;;;4988135;28;20181;-61
2022/05/29 14:26:49;;;;;;;1.88;1.50;;;;;;;;;;4982742;28;20197;-61
2022/05/29 14:29:20;;;;;;;3.40;1.27;;;;;;;;;;4982203;28;20317;-63
2022/05/29 14:31:46;;;;;;;1.60;1.30;;;;;;;;;;4984094;28;20596;-63
2022/05/29 14:34:16;;;;;;;1.83;1.20;;;;;;;;;;4972959;28;20186;-64
2022/05/29 14:36:55;;;;;;;2.90;1.42;;;;;;;;;;4964246;28;20186;-64
2022/05/29 14:39:28;;;;;;;2.05;1.30;;;;;;;;;;4966723;28;20197;-62
2022/05/29 14:41:56;;;;;;;2.75;1.40;;;;;;;;;;4989238;28;20237;-61
2022/05/29 14:44:34;;;;;;;2.17;1.30;;;;;;;;;;4984302;28;20192;-61
2022/05/29 14:47:02;;;;;;;1.43;1.33;;;;;;;;;;4982391;28;20204;-62
2022/05/29 14:49:44;;;;;;;1.30;1.20;;;;;;;;;;4990068;28;20209;-62
2022/05/29 14:52:13;;;;;;;2.43;1.10;;;;;;;;;;4993329;28;20657;-61
2022/05/29 14:54:43;;;;;;;1.83;1.03;;;;;;;;;;4987173;28;20200;-61
2022/05/29 14:57:16;;;;;;;2.40;1.17;;;;;;;;;;4982421;28;20203;-60
2022/05/29 14:59:42;;;;;;;2.93;1.10;;;;;;;;;;4987978;28;20197;-61
2022/05/29 15:02:14;;;;;;;1.73;1.27;;;;;;;;;;4990960;28;20574;-61
2022/05/29 15:04:40;;;;;;;2.00;1.20;;;;;;;;;;4979297;28;20323;-60
2022/05/29 15:12:39;;;;;;;2.20;1.90;;;;;;;;;;4993284;28;20283;-61
2022/05/29 15:15:14;;;;;;;3.90;2.93;;;;;;;;;;4989909;28;20244;-62
2022/05/29 15:17:40;;;;;;;3.33;2.67;;;;;;;;;;4991317;28;20198;-61
2022/05/29 15:25:40;;;;;;;10.40;4.10;;;;;;;;;;4994848;28;20196;-61
2022/05/29 15:28:11;;;;;;;16.13;5.10;;;;;;;;;;4990791;28;20218;-61
2022/05/29 15:30:40;;;;;;;42.20;13.40;;;;;;;;;;4990421;28;20404;-62
2022/05/29 15:33:08;;;;;;;41.23;13.53;;;;;;;;;;4992179;28;20186;-61
2022/05/29 15:35:37;;;;;;;49.37;17.47;;;;;;;;;;4990246;28;20186;-61
2022/05/29 15:38:26;;;;;;;58.63;19.83;;;;;;;;;;4994762;28;20197;-61
2022/05/29 15:41:05;;;;;;;52.60;16.77;;;;;;;;;;4990117;28;20289;-60
2022/05/29 15:43:51;;;;;;;38.97;12.27;;;;;;;;;;4992049;28;20186;-60
2022/05/29 15:46:23;;;;;;;38.20;12.57;;;;;;;;;;4987233;28;20194;-60
2022/05/29 15:48:49;;;;;;;32.33;10.00;;;;;;;;;;4994527;28;20216;-62
2022/05/29 15:51:18;;;;;;;31.07;10.47;;;;;;;;;;4985593;28;20186;-60